createdAt,value
2022-12-25T00:00:34.992Z,2.83
2022-12-25T00:01:34.987Z,2.83
2022-12-25T00:02:35.083Z,2.83
2022-12-25T00:03:35.061Z,2.80
2022-12-25T00:04:34.930Z,2.79
2022-12-25T00:05:34.922Z,2.77
2022-12-25T00:06:34.896Z,2.77
2022-12-25T00:07:34.876Z,2.75
2022-12-25T00:08:34.880Z,2.74
2022-12-25T00:09:34.879Z,2.74
2022-12-25T00:10:37.504Z,2.72
2022-12-25T00:11:35.870Z,2.72
2022-12-25T00:12:34.814Z,2.71
2022-12-25T00:13:34.825Z,2.71
2022-12-25T00:14:34.805Z,2.69
2022-12-25T00:15:34.811Z,2.69
2022-12-25T00:16:34.869Z,2.69
2022-12-25T00:17:34.767Z,2.67
2022-12-25T00:18:34.811Z,2.67
2022-12-25T00:19:34.735Z,2.62
2022-12-25T00:20:34.714Z,2.64
2022-12-25T00:21:34.704Z,2.62
2022-12-25T00:22:34.702Z,2.61
2022-12-25T00:23:34.702Z,2.61
2022-12-25T00:24:34.741Z,2.61
2022-12-25T00:25:34.663Z,2.60
2022-12-25T00:26:34.642Z,2.57
2022-12-25T00:27:34.668Z,2.56
2022-12-25T00:28:34.643Z,2.54
2022-12-25T00:29:34.607Z,2.53
2022-12-25T00:30:34.594Z,2.53
2022-12-25T00:31:34.700Z,2.53
2022-12-25T00:32:34.583Z,2.51
2022-12-25T00:33:34.590Z,2.49
2022-12-25T00:34:34.554Z,2.50
2022-12-25T00:35:34.539Z,2.49
2022-12-25T00:36:39.647Z,2.49
2022-12-25T00:37:35.508Z,2.50
2022-12-25T00:38:34.544Z,2.46
2022-12-25T00:39:34.479Z,2.47
2022-12-25T00:40:34.515Z,2.49
2022-12-25T00:41:34.483Z,2.46
2022-12-25T00:42:34.439Z,2.47
2022-12-25T00:43:34.459Z,2.46
2022-12-25T00:44:34.433Z,2.44
2022-12-25T00:45:34.443Z,2.43
2022-12-25T00:46:34.457Z,2.43
2022-12-25T00:47:34.392Z,2.43
2022-12-25T00:48:34.416Z,2.42
2022-12-25T00:49:34.370Z,2.39
2022-12-25T00:50:34.338Z,2.39
2022-12-25T00:51:34.363Z,2.36
2022-12-25T00:52:34.333Z,2.36
2022-12-25T00:53:34.334Z,2.36
2022-12-25T00:54:34.295Z,2.36
2022-12-25T00:55:34.291Z,2.36
2022-12-25T00:56:34.265Z,2.33
2022-12-25T00:57:34.304Z,2.35
2022-12-25T00:58:34.270Z,2.33
2022-12-25T00:59:34.262Z,2.33
2022-12-25T01:00:34.268Z,2.32
2022-12-25T01:01:34.244Z,2.33
2022-12-25T01:02:34.230Z,2.31
2022-12-25T01:03:34.191Z,2.31
2022-12-25T01:04:34.166Z,2.31
2022-12-25T01:05:34.143Z,2.31
2022-12-25T01:06:34.144Z,2.31
2022-12-25T01:07:34.139Z,2.28
2022-12-25T01:08:34.127Z,2.29
2022-12-25T01:09:34.112Z,2.28
2022-12-25T01:10:34.091Z,2.28
2022-12-25T01:11:34.084Z,2.25
2022-12-25T01:12:34.053Z,2.25
2022-12-25T01:13:34.062Z,2.25
2022-12-25T01:14:34.034Z,2.26
2022-12-25T01:15:34.021Z,2.22
2022-12-25T01:16:34.103Z,2.20
2022-12-25T01:17:33.999Z,2.18
2022-12-25T01:18:34.003Z,2.18
2022-12-25T01:19:33.985Z,2.15
2022-12-25T01:20:33.958Z,2.17
2022-12-25T01:21:33.953Z,2.15
2022-12-25T01:22:33.932Z,2.15
2022-12-25T01:23:33.940Z,2.15
2022-12-25T01:24:33.917Z,2.14
2022-12-25T01:25:33.939Z,2.13
2022-12-25T01:26:33.885Z,2.11
2022-12-25T01:27:33.868Z,2.10
2022-12-25T01:28:33.873Z,2.10
2022-12-25T01:29:33.870Z,2.07
2022-12-25T01:30:33.836Z,2.06
2022-12-25T01:31:33.852Z,2.06
2022-12-25T01:32:33.806Z,2.06
2022-12-25T01:33:33.825Z,2.04
2022-12-25T01:34:33.783Z,2.02
2022-12-25T01:35:33.781Z,2.04
2022-12-25T01:36:33.790Z,1.97
2022-12-25T01:37:33.789Z,1.97
2022-12-25T01:38:33.779Z,1.95
2022-12-25T01:39:33.729Z,1.95
2022-12-25T01:40:33.719Z,1.95
2022-12-25T01:41:33.728Z,1.95
2022-12-25T01:42:33.685Z,1.92
2022-12-25T01:43:33.678Z,1.92
2022-12-25T01:44:33.660Z,1.91
2022-12-25T01:45:33.739Z,1.88
2022-12-25T01:46:33.619Z,1.88
2022-12-25T01:47:33.633Z,1.89
2022-12-25T01:48:33.798Z,1.87
2022-12-25T01:49:33.582Z,1.87
2022-12-25T01:50:33.583Z,1.85
2022-12-25T01:51:33.553Z,1.85
2022-12-25T01:52:33.552Z,1.85
2022-12-25T01:53:33.592Z,1.81
2022-12-25T01:54:33.551Z,1.80
2022-12-25T01:55:33.513Z,1.80
2022-12-25T01:56:33.501Z,1.80
2022-12-25T01:57:33.486Z,1.80
2022-12-25T01:58:33.502Z,1.78
2022-12-25T01:59:33.489Z,1.77
2022-12-25T02:00:33.454Z,1.77
2022-12-25T02:01:33.528Z,1.76
2022-12-25T02:02:33.564Z,1.74
2022-12-25T02:03:33.453Z,1.73
2022-12-25T02:04:33.411Z,1.76
2022-12-25T02:05:33.405Z,1.73
2022-12-25T02:06:33.372Z,1.73
2022-12-25T02:07:33.363Z,1.71
2022-12-25T02:08:33.349Z,1.70
2022-12-25T02:09:33.348Z,1.70
2022-12-25T02:10:33.340Z,1.70
2022-12-25T02:11:33.354Z,1.67
2022-12-25T02:12:33.313Z,1.67
2022-12-25T02:13:33.326Z,1.67
2022-12-25T02:14:33.295Z,1.67
2022-12-25T02:15:33.257Z,1.63
2022-12-25T02:16:33.271Z,1.62
2022-12-25T02:17:34.238Z,1.62
2022-12-25T02:18:33.226Z,1.59
2022-12-25T02:19:33.216Z,1.59
2022-12-25T02:20:33.204Z,1.58
2022-12-25T02:21:33.203Z,1.60
2022-12-25T02:22:33.167Z,1.58
2022-12-25T02:23:33.155Z,1.58
2022-12-25T02:24:33.153Z,1.56
2022-12-25T02:25:33.136Z,1.56
2022-12-25T02:26:33.117Z,1.56
2022-12-25T02:27:33.105Z,1.56
2022-12-25T02:28:33.093Z,1.55
2022-12-25T02:29:33.109Z,1.52
2022-12-25T02:30:33.064Z,1.53
2022-12-25T02:31:33.088Z,1.49
2022-12-25T02:32:33.039Z,1.50
2022-12-25T02:33:33.024Z,1.50
2022-12-25T02:34:33.023Z,1.48
2022-12-25T02:35:33.002Z,1.49
2022-12-25T02:36:32.983Z,1.48
2022-12-25T02:37:32.972Z,1.48
2022-12-25T02:38:32.966Z,1.44
2022-12-25T02:39:32.976Z,1.44
2022-12-25T02:40:32.938Z,1.44
2022-12-25T02:41:32.923Z,1.42
2022-12-25T02:42:32.920Z,1.42
2022-12-25T02:43:32.901Z,1.41
2022-12-25T02:44:32.889Z,1.41
2022-12-25T02:45:32.913Z,1.38
2022-12-25T02:46:32.898Z,1.38
2022-12-25T02:47:32.854Z,1.37
2022-12-25T02:48:32.832Z,1.37
2022-12-25T02:49:32.839Z,1.34
2022-12-25T02:50:32.809Z,1.32
2022-12-25T02:51:32.810Z,1.32
2022-12-25T02:52:32.770Z,1.34
2022-12-25T02:53:32.775Z,1.32
2022-12-25T02:54:32.759Z,1.30
2022-12-25T02:55:32.743Z,1.30
2022-12-25T02:56:32.728Z,1.30
2022-12-25T02:57:32.719Z,1.26
2022-12-25T02:58:32.692Z,1.28
2022-12-25T02:59:32.716Z,1.26
2022-12-25T03:00:32.675Z,1.26
2022-12-25T03:01:32.764Z,1.24
2022-12-25T03:02:32.716Z,1.23
2022-12-25T03:03:32.760Z,1.22
2022-12-25T03:04:32.643Z,1.22
2022-12-25T03:05:32.624Z,1.22
2022-12-25T03:06:32.619Z,1.19
2022-12-25T03:07:32.587Z,1.20
2022-12-25T03:08:32.578Z,1.20
2022-12-25T03:09:32.594Z,1.16
2022-12-25T03:10:32.546Z,1.16
2022-12-25T03:11:32.550Z,1.16
2022-12-25T03:12:32.526Z,1.16
2022-12-25T03:13:32.516Z,1.13
2022-12-25T03:14:32.515Z,1.14
2022-12-25T03:15:32.506Z,1.13
2022-12-25T03:16:32.520Z,1.10
2022-12-25T03:17:32.471Z,1.10
2022-12-25T03:18:32.448Z,1.08
2022-12-25T03:19:32.453Z,1.06
2022-12-25T03:20:32.420Z,1.08
2022-12-25T03:21:32.401Z,1.08
2022-12-25T03:22:32.384Z,1.06
2022-12-25T03:23:32.383Z,1.05
2022-12-25T03:24:32.396Z,1.04
2022-12-25T03:25:32.363Z,1.04
2022-12-25T03:26:32.334Z,1.04
2022-12-25T03:27:32.337Z,1.02
2022-12-25T03:28:32.313Z,1.01
2022-12-25T03:29:32.328Z,1.01
2022-12-25T03:30:32.337Z,0.98
2022-12-25T03:31:32.282Z,0.99
2022-12-25T03:32:32.272Z,0.99
2022-12-25T03:33:47.172Z,0.98
2022-12-25T03:34:33.264Z,0.99
2022-12-25T03:35:33.511Z,0.96
2022-12-25T03:36:32.239Z,0.96
2022-12-25T03:37:32.218Z,0.96
2022-12-25T03:38:32.199Z,0.94
2022-12-25T03:39:32.200Z,0.94
2022-12-25T03:40:32.169Z,0.94
2022-12-25T03:41:32.151Z,0.95
2022-12-25T03:42:32.185Z,0.94
2022-12-25T03:43:32.141Z,0.95
2022-12-25T03:44:32.134Z,0.94
2022-12-25T03:45:32.109Z,0.95
2022-12-25T03:46:32.133Z,0.94
2022-12-25T03:47:32.084Z,0.95
2022-12-25T03:48:32.066Z,0.95
2022-12-25T03:49:32.061Z,0.95
2022-12-25T03:50:32.044Z,0.96
2022-12-25T03:51:32.035Z,0.95
2022-12-25T03:52:32.016Z,0.96
2022-12-25T03:53:32.014Z,0.95
2022-12-25T03:54:32.004Z,0.95
2022-12-25T03:55:32.004Z,0.98
2022-12-25T03:56:31.967Z,0.96
2022-12-25T03:57:31.946Z,0.98
2022-12-25T03:58:31.946Z,0.98
2022-12-25T03:59:31.955Z,0.98
2022-12-25T04:00:31.928Z,0.98
2022-12-25T04:01:32.067Z,0.99
2022-12-25T04:02:32.123Z,0.99
2022-12-25T04:03:31.960Z,1.01
2022-12-25T04:04:31.965Z,1.02
2022-12-25T04:05:31.861Z,1.02
2022-12-25T04:06:31.836Z,1.02
2022-12-25T04:07:31.824Z,1.04
2022-12-25T04:08:31.820Z,1.04
2022-12-25T04:09:31.814Z,1.05
2022-12-25T04:10:31.784Z,1.06
2022-12-25T04:11:31.797Z,1.06
2022-12-25T04:12:31.764Z,1.10
2022-12-25T04:13:31.746Z,1.13
2022-12-25T04:14:31.757Z,1.14
2022-12-25T04:15:31.773Z,1.13
2022-12-25T04:16:31.713Z,1.14
2022-12-25T04:17:31.700Z,1.16
2022-12-25T04:18:31.689Z,1.16
2022-12-25T04:19:31.695Z,1.19
2022-12-25T04:20:31.652Z,1.17
2022-12-25T04:21:31.641Z,1.20
2022-12-25T04:22:31.641Z,1.22
2022-12-25T04:23:31.624Z,1.23
2022-12-25T04:24:31.633Z,1.22
2022-12-25T04:25:31.601Z,1.22
2022-12-25T04:26:31.590Z,1.22
2022-12-25T04:27:31.571Z,1.22
2022-12-25T04:28:31.562Z,1.24
2022-12-25T04:29:31.571Z,1.26
2022-12-25T04:30:31.534Z,1.28
2022-12-25T04:31:31.592Z,1.28
2022-12-25T04:32:31.528Z,1.30
2022-12-25T04:33:31.501Z,1.30
2022-12-25T04:34:31.508Z,1.30
2022-12-25T04:35:31.459Z,1.31
2022-12-25T04:36:31.459Z,1.32
2022-12-25T04:37:31.436Z,1.32
2022-12-25T04:38:31.439Z,1.31
2022-12-25T04:39:31.427Z,1.34
2022-12-25T04:40:31.410Z,1.35
2022-12-25T04:41:31.391Z,1.37
2022-12-25T04:42:31.389Z,1.37
2022-12-25T04:43:31.377Z,1.38
2022-12-25T04:44:31.376Z,1.40
2022-12-25T04:45:31.337Z,1.42
2022-12-25T04:46:31.409Z,1.41
2022-12-25T04:47:31.319Z,1.41
2022-12-25T04:48:31.307Z,1.40
2022-12-25T04:49:31.306Z,1.42
2022-12-25T04:50:31.289Z,1.41
2022-12-25T04:51:31.265Z,1.42
2022-12-25T04:52:31.267Z,1.42
2022-12-25T04:53:31.244Z,1.44
2022-12-25T04:54:31.249Z,1.45
2022-12-25T04:55:31.212Z,1.48
2022-12-25T04:56:31.211Z,1.48
2022-12-25T04:57:31.185Z,1.52
2022-12-25T04:58:31.214Z,1.53
2022-12-25T04:59:31.174Z,1.58
2022-12-25T05:00:31.164Z,1.59
2022-12-25T05:01:31.260Z,1.60
2022-12-25T05:02:31.298Z,1.60
2022-12-25T05:03:31.182Z,1.62
2022-12-25T05:04:31.137Z,1.62
2022-12-25T05:05:31.102Z,1.63
2022-12-25T05:06:31.084Z,1.67
2022-12-25T05:07:31.083Z,1.70
2022-12-25T05:08:31.053Z,1.70
2022-12-25T05:09:31.051Z,1.71
2022-12-25T05:10:31.042Z,1.71
2022-12-25T05:11:31.012Z,1.73
2022-12-25T05:12:31.009Z,1.73
2022-12-25T05:13:30.989Z,1.73
2022-12-25T05:14:30.989Z,1.74
2022-12-25T05:15:30.967Z,1.74
2022-12-25T05:16:31.052Z,1.74
2022-12-25T05:17:30.932Z,1.74
2022-12-25T05:18:30.954Z,1.76
2022-12-25T05:19:30.933Z,1.76
2022-12-25T05:20:36.258Z,1.76
2022-12-25T05:21:31.899Z,1.77
2022-12-25T05:22:30.894Z,1.77
2022-12-25T05:23:30.898Z,1.80
2022-12-25T05:24:30.917Z,1.81
2022-12-25T05:25:30.856Z,1.85
2022-12-25T05:26:30.869Z,1.85
2022-12-25T05:27:30.808Z,1.87
2022-12-25T05:28:30.803Z,1.89
2022-12-25T05:29:30.823Z,1.89
2022-12-25T05:30:30.789Z,1.91
2022-12-25T05:31:30.854Z,1.92
2022-12-25T05:32:30.770Z,1.95
2022-12-25T05:33:30.753Z,1.99
2022-12-25T05:34:30.750Z,2.00
2022-12-25T05:35:30.736Z,2.02
2022-12-25T05:36:30.723Z,2.04
2022-12-25T05:37:30.709Z,2.07
2022-12-25T05:38:30.676Z,2.07
2022-12-25T05:39:30.685Z,2.08
2022-12-25T05:40:30.674Z,2.10
2022-12-25T05:41:34.204Z,2.13
2022-12-25T05:42:30.628Z,2.13
2022-12-25T05:43:30.618Z,2.14
2022-12-25T05:44:30.630Z,2.14
2022-12-25T05:45:30.582Z,2.15
2022-12-25T05:46:30.666Z,2.17
2022-12-25T05:47:30.556Z,2.20
2022-12-25T05:48:30.561Z,2.24
2022-12-25T05:49:30.546Z,2.24
2022-12-25T05:50:30.540Z,2.25
2022-12-25T05:51:30.547Z,2.25
2022-12-25T05:52:30.494Z,2.26
2022-12-25T05:53:30.474Z,2.29
2022-12-25T05:54:30.472Z,2.29
2022-12-25T05:55:30.474Z,2.32
2022-12-25T05:56:30.443Z,2.33
2022-12-25T05:57:30.436Z,2.35
2022-12-25T05:58:30.414Z,2.36
2022-12-25T05:59:30.402Z,2.38
2022-12-25T06:00:30.424Z,2.39
2022-12-25T06:01:30.590Z,2.42
2022-12-25T06:02:30.591Z,2.43
2022-12-25T06:03:30.418Z,2.42
2022-12-25T06:04:30.342Z,2.43
2022-12-25T06:05:30.343Z,2.44
2022-12-25T06:06:30.316Z,2.46
2022-12-25T06:07:30.300Z,2.47
2022-12-25T06:08:30.315Z,2.47
2022-12-25T06:09:30.274Z,2.50
2022-12-25T06:10:30.278Z,2.50
2022-12-25T06:11:30.253Z,2.51
2022-12-25T06:12:30.231Z,2.53
2022-12-25T06:13:30.218Z,2.54
2022-12-25T06:14:30.211Z,2.54
2022-12-25T06:15:30.206Z,2.56
2022-12-25T06:16:37.268Z,2.57
2022-12-25T06:17:31.168Z,2.57
2022-12-25T06:18:30.169Z,2.57
2022-12-25T06:19:30.146Z,2.60
2022-12-25T06:20:30.169Z,2.57
2022-12-25T06:21:30.116Z,2.60
2022-12-25T06:22:30.133Z,2.62
2022-12-25T06:23:30.141Z,2.64
2022-12-25T06:24:30.084Z,2.65
2022-12-25T06:25:30.082Z,2.68
2022-12-25T06:26:30.074Z,2.65
2022-12-25T06:27:30.043Z,2.64
2022-12-25T06:28:30.040Z,2.67
2022-12-25T06:29:30.017Z,2.69
2022-12-25T06:30:30.036Z,2.69
2022-12-25T06:31:30.004Z,2.69
2022-12-25T06:32:29.975Z,2.72
2022-12-25T06:33:29.956Z,2.75
2022-12-25T06:34:29.959Z,2.75
2022-12-25T06:35:29.964Z,2.79
2022-12-25T06:36:29.934Z,2.80
2022-12-25T06:37:29.905Z,2.80
2022-12-25T06:38:29.903Z,2.80
2022-12-25T06:39:29.885Z,2.80
2022-12-25T06:40:29.883Z,2.82
2022-12-25T06:41:29.853Z,2.82
2022-12-25T06:42:29.852Z,2.83
2022-12-25T06:43:29.870Z,2.83
2022-12-25T06:44:29.828Z,2.82
2022-12-25T06:45:29.848Z,2.85
2022-12-25T06:46:29.812Z,2.86
2022-12-25T06:47:29.792Z,2.86
2022-12-25T06:48:29.776Z,2.86
2022-12-25T06:49:29.757Z,2.90
2022-12-25T06:50:29.760Z,2.89
2022-12-25T06:51:29.747Z,2.92
2022-12-25T06:52:29.713Z,2.93
2022-12-25T06:53:35.245Z,2.98
2022-12-25T06:54:30.689Z,2.95
2022-12-25T06:55:29.700Z,2.97
2022-12-25T06:56:29.668Z,2.97
2022-12-25T06:57:29.651Z,2.97
2022-12-25T06:58:29.639Z,3.00
2022-12-25T06:59:29.625Z,3.01
2022-12-25T07:00:29.753Z,3.03
2022-12-25T07:01:29.709Z,3.03
2022-12-25T07:02:29.674Z,3.03
2022-12-25T07:03:29.649Z,3.03
2022-12-25T07:04:29.560Z,3.00
2022-12-25T07:05:29.564Z,3.03
2022-12-25T07:06:29.528Z,3.03
2022-12-25T07:07:29.527Z,3.03
2022-12-25T07:08:29.509Z,3.04
2022-12-25T07:09:29.487Z,3.03
2022-12-25T07:10:29.556Z,3.03
2022-12-25T07:11:29.460Z,3.04
2022-12-25T07:12:29.470Z,3.03
2022-12-25T07:13:29.442Z,3.04
2022-12-25T07:14:29.434Z,3.04
2022-12-25T07:15:29.425Z,3.04
2022-12-25T07:16:29.527Z,3.05
2022-12-25T07:17:29.394Z,3.07
2022-12-25T07:18:29.419Z,3.07
2022-12-25T07:19:29.384Z,3.11
2022-12-25T07:20:29.396Z,3.10
2022-12-25T07:21:29.346Z,3.13
2022-12-25T07:22:29.324Z,3.11
2022-12-25T07:23:29.319Z,3.13
2022-12-25T07:24:29.308Z,3.13
2022-12-25T07:25:35.268Z,3.16
2022-12-25T07:26:30.283Z,3.19
2022-12-25T07:27:29.296Z,3.19
2022-12-25T07:28:29.254Z,3.21
2022-12-25T07:29:29.231Z,3.21
2022-12-25T07:30:29.327Z,3.22
2022-12-25T07:31:29.268Z,3.23
2022-12-25T07:32:29.207Z,3.23
2022-12-25T07:33:29.193Z,3.25
2022-12-25T07:34:29.223Z,3.25
2022-12-25T07:35:29.171Z,3.23
2022-12-25T07:36:29.147Z,3.25
2022-12-25T07:37:29.130Z,3.25
2022-12-25T07:38:29.120Z,3.23
2022-12-25T07:39:29.100Z,3.23
2022-12-25T07:40:29.101Z,3.25
2022-12-25T07:41:29.074Z,3.25
2022-12-25T07:42:29.075Z,3.25
2022-12-25T07:43:29.052Z,3.25
2022-12-25T07:44:29.062Z,3.26
2022-12-25T07:45:29.079Z,3.25
2022-12-25T07:46:29.104Z,3.26
2022-12-25T07:47:28.995Z,3.26
2022-12-25T07:48:29.015Z,3.26
2022-12-25T07:49:29.009Z,3.26
2022-12-25T07:50:28.991Z,3.28
2022-12-25T07:51:28.959Z,3.28
2022-12-25T07:52:28.948Z,3.28
2022-12-25T07:53:28.920Z,3.29
2022-12-25T07:54:28.946Z,3.31
2022-12-25T07:55:28.937Z,3.31
2022-12-25T07:56:28.895Z,3.29
2022-12-25T07:57:28.882Z,3.32
2022-12-25T07:58:28.887Z,3.31
2022-12-25T07:59:28.863Z,3.29
2022-12-25T08:00:28.850Z,3.31
2022-12-25T08:01:28.992Z,3.29
2022-12-25T08:02:29.197Z,3.31
2022-12-25T08:03:29.067Z,3.31
2022-12-25T08:04:28.806Z,3.32
2022-12-25T08:05:28.794Z,3.32
2022-12-25T08:06:28.756Z,3.32
2022-12-25T08:07:28.754Z,3.34
2022-12-25T08:08:28.755Z,3.36
2022-12-25T08:09:28.733Z,3.37
2022-12-25T08:10:28.725Z,3.37
2022-12-25T08:11:28.708Z,3.37
2022-12-25T08:12:28.687Z,3.40
2022-12-25T08:13:28.684Z,3.40
2022-12-25T08:14:28.673Z,3.41
2022-12-25T08:15:28.670Z,3.41
2022-12-25T08:16:28.694Z,3.42
2022-12-25T08:17:28.616Z,3.45
2022-12-25T08:18:30.332Z,3.47
2022-12-25T08:19:28.598Z,3.50
2022-12-25T08:20:28.593Z,3.50
2022-12-25T08:21:28.562Z,3.53
2022-12-25T08:22:28.584Z,3.55
2022-12-25T08:23:28.666Z,3.55
2022-12-25T08:24:28.602Z,3.58
2022-12-25T08:25:28.520Z,3.60
2022-12-25T08:26:28.522Z,3.63
2022-12-25T08:27:28.488Z,3.68
2022-12-25T08:28:28.502Z,3.69
2022-12-25T08:29:28.500Z,3.73
2022-12-25T08:30:28.541Z,3.77
2022-12-25T08:31:28.559Z,3.81
2022-12-25T08:32:28.449Z,3.83
2022-12-25T08:33:28.431Z,3.88
2022-12-25T08:34:28.398Z,3.91
2022-12-25T08:35:28.418Z,3.94
2022-12-25T08:36:28.399Z,3.95
2022-12-25T08:37:28.372Z,3.99
2022-12-25T08:38:28.361Z,4.01
2022-12-25T08:39:28.353Z,4.04
2022-12-25T08:40:28.347Z,4.04
2022-12-25T08:41:28.327Z,4.12
2022-12-25T08:42:28.301Z,4.12
2022-12-25T08:43:28.290Z,4.16
2022-12-25T08:44:28.378Z,4.17
2022-12-25T08:45:34.522Z,4.17
2022-12-25T08:46:29.331Z,4.19
2022-12-25T08:47:28.244Z,4.20
2022-12-25T08:48:28.232Z,4.23
2022-12-25T08:49:28.230Z,4.26
2022-12-25T08:50:28.189Z,4.30
2022-12-25T08:51:28.354Z,4.32
2022-12-25T08:52:28.183Z,4.34
2022-12-25T08:53:28.248Z,4.38
2022-12-25T08:54:28.150Z,4.41
2022-12-25T08:55:28.140Z,4.45
2022-12-25T08:56:28.155Z,4.49
2022-12-25T08:57:28.116Z,4.52
2022-12-25T08:58:28.186Z,4.52
2022-12-25T08:59:28.077Z,4.55
2022-12-25T09:00:28.060Z,4.59
2022-12-25T09:01:28.153Z,4.60
2022-12-25T09:02:28.211Z,4.63
2022-12-25T09:03:28.127Z,4.68
2022-12-25T09:04:28.015Z,4.70
2022-12-25T09:05:28.022Z,4.70
2022-12-25T09:06:27.995Z,4.73
2022-12-25T09:07:27.982Z,4.74
2022-12-25T09:08:27.968Z,4.77
2022-12-25T09:09:27.957Z,4.78
2022-12-25T09:10:27.981Z,4.82
2022-12-25T09:11:27.982Z,4.84
2022-12-25T09:12:27.906Z,4.87
2022-12-25T09:13:27.895Z,4.87
2022-12-25T09:14:27.887Z,4.92
2022-12-25T09:15:27.912Z,4.92
2022-12-25T09:16:27.993Z,4.96
2022-12-25T09:17:27.857Z,4.97
2022-12-25T09:18:27.833Z,5.00
2022-12-25T09:19:27.846Z,5.02
2022-12-25T09:20:27.800Z,5.08
2022-12-25T09:21:27.807Z,5.10
2022-12-25T09:22:27.797Z,5.08
2022-12-25T09:23:27.784Z,5.17
2022-12-25T09:24:27.762Z,5.20
2022-12-25T09:25:27.780Z,5.20
2022-12-25T09:26:27.764Z,5.23
2022-12-25T09:27:27.731Z,5.26
2022-12-25T09:28:27.716Z,5.29
2022-12-25T09:29:27.809Z,5.30
2022-12-25T09:30:27.681Z,5.32
2022-12-25T09:31:27.681Z,5.35
2022-12-25T09:32:27.658Z,5.38
2022-12-25T09:33:27.678Z,5.43
2022-12-25T09:34:27.624Z,5.44
2022-12-25T09:35:27.641Z,5.46
2022-12-25T09:36:27.613Z,5.47
2022-12-25T09:37:27.591Z,5.47
2022-12-25T09:38:27.570Z,5.51
2022-12-25T09:39:27.570Z,5.54
2022-12-25T09:40:27.550Z,5.57
2022-12-25T09:41:27.558Z,5.61
2022-12-25T09:42:27.530Z,5.64
2022-12-25T09:43:27.510Z,5.66
2022-12-25T09:44:27.508Z,5.68
2022-12-25T09:45:27.501Z,5.71
2022-12-25T09:46:34.755Z,5.73
2022-12-25T09:47:28.463Z,5.79
2022-12-25T09:48:27.449Z,5.79
2022-12-25T09:49:27.430Z,5.82
2022-12-25T09:50:27.430Z,5.84
2022-12-25T09:51:27.431Z,5.86
2022-12-25T09:52:27.409Z,5.87
2022-12-25T09:53:27.425Z,5.90
2022-12-25T09:54:27.374Z,5.93
2022-12-25T09:55:27.382Z,5.98
2022-12-25T09:56:27.371Z,6.02
2022-12-25T09:57:27.339Z,6.02
2022-12-25T09:58:27.336Z,6.07
2022-12-25T09:59:27.349Z,6.09
2022-12-25T10:00:27.289Z,6.12
2022-12-25T10:01:27.397Z,6.16
2022-12-25T10:02:27.438Z,6.17
2022-12-25T10:03:27.319Z,6.19
2022-12-25T10:04:27.238Z,6.20
2022-12-25T10:05:27.237Z,6.24
2022-12-25T10:06:27.237Z,6.26
2022-12-25T10:07:27.218Z,6.27
2022-12-25T10:08:27.209Z,6.28
2022-12-25T10:09:27.177Z,6.30
2022-12-25T10:10:27.173Z,6.31
2022-12-25T10:11:27.316Z,6.31
2022-12-25T10:12:27.293Z,6.36
2022-12-25T10:13:27.275Z,6.36
2022-12-25T10:14:27.157Z,6.36
2022-12-25T10:15:27.125Z,6.39
2022-12-25T10:16:27.230Z,6.41
2022-12-25T10:17:27.091Z,6.41
2022-12-25T10:18:27.097Z,6.41
2022-12-25T10:19:27.118Z,6.44
2022-12-25T10:20:27.078Z,6.42
2022-12-25T10:21:27.055Z,6.44
2022-12-25T10:22:27.024Z,6.44
2022-12-25T10:23:27.056Z,6.45
2022-12-25T10:24:27.046Z,6.45
2022-12-25T10:25:26.995Z,6.46
2022-12-25T10:26:26.998Z,6.48
2022-12-25T10:27:26.971Z,6.49
2022-12-25T10:28:26.935Z,6.49
2022-12-25T10:29:26.941Z,6.49
2022-12-25T10:30:26.912Z,6.52
2022-12-25T10:31:27.005Z,6.51
2022-12-25T10:32:26.884Z,6.56
2022-12-25T10:33:26.881Z,6.56
2022-12-25T10:34:26.862Z,6.57
2022-12-25T10:35:26.890Z,6.57
2022-12-25T10:36:26.861Z,6.59
2022-12-25T10:37:26.856Z,6.60
2022-12-25T10:38:26.812Z,6.63
2022-12-25T10:39:26.846Z,6.63
2022-12-25T10:40:26.800Z,6.64
2022-12-25T10:41:26.831Z,6.63
2022-12-25T10:42:26.776Z,6.64
2022-12-25T10:43:26.790Z,6.64
2022-12-25T10:44:26.774Z,6.64
2022-12-25T10:45:26.734Z,6.66
2022-12-25T10:46:26.817Z,6.64
2022-12-25T10:47:26.728Z,6.67
2022-12-25T10:48:26.708Z,6.67
2022-12-25T10:49:26.712Z,6.67
2022-12-25T10:50:26.707Z,6.67
2022-12-25T10:51:26.671Z,6.69
2022-12-25T10:52:26.627Z,6.69
2022-12-25T10:53:26.656Z,6.72
2022-12-25T10:54:26.612Z,6.70
2022-12-25T10:55:29.053Z,6.75
2022-12-25T10:56:26.609Z,6.77
2022-12-25T10:57:26.579Z,6.79
2022-12-25T10:58:26.579Z,6.78
2022-12-25T10:59:26.547Z,6.81
2022-12-25T11:00:26.542Z,6.84
2022-12-25T11:01:26.696Z,6.87
2022-12-25T11:02:26.698Z,6.88
2022-12-25T11:03:26.630Z,6.95
2022-12-25T11:04:26.491Z,6.95
2022-12-25T11:05:26.478Z,7.00
2022-12-25T11:06:26.464Z,7.02
2022-12-25T11:07:26.451Z,7.06
2022-12-25T11:08:26.434Z,7.06
2022-12-25T11:09:26.421Z,7.10
2022-12-25T11:10:26.414Z,7.13
2022-12-25T11:11:26.409Z,7.14
2022-12-25T11:12:26.380Z,7.15
2022-12-25T11:13:26.366Z,7.17
2022-12-25T11:14:26.346Z,7.18
2022-12-25T11:15:26.383Z,7.20
2022-12-25T11:16:26.396Z,7.23
2022-12-25T11:17:26.307Z,7.23
2022-12-25T11:18:26.304Z,7.24
2022-12-25T11:19:26.304Z,7.25
2022-12-25T11:20:26.296Z,7.25
2022-12-25T11:21:26.279Z,7.28
2022-12-25T11:22:26.235Z,7.31
2022-12-25T11:23:26.299Z,7.29
2022-12-25T11:24:26.233Z,7.29
2022-12-25T11:25:26.212Z,7.29
2022-12-25T11:26:26.207Z,7.28
2022-12-25T11:27:26.186Z,7.29
2022-12-25T11:28:26.190Z,7.29
2022-12-25T11:29:26.168Z,7.29
2022-12-25T11:30:26.194Z,7.29
2022-12-25T11:31:26.193Z,7.29
2022-12-25T11:32:26.129Z,7.28
2022-12-25T11:33:26.104Z,7.29
2022-12-25T11:34:26.082Z,7.28
2022-12-25T11:35:26.082Z,7.31
2022-12-25T11:36:26.445Z,7.29
2022-12-25T11:37:26.075Z,7.31
2022-12-25T11:38:26.041Z,7.31
2022-12-25T11:39:26.024Z,7.32
2022-12-25T11:40:26.016Z,7.35
2022-12-25T11:41:25.996Z,7.36
2022-12-25T11:42:26.003Z,7.39
2022-12-25T11:43:25.973Z,7.39
2022-12-25T11:44:25.955Z,7.42
2022-12-25T11:45:25.970Z,7.45
2022-12-25T11:46:26.021Z,7.47
2022-12-25T11:47:25.961Z,7.48
2022-12-25T11:48:25.933Z,7.51
2022-12-25T11:49:25.905Z,7.54
2022-12-25T11:50:25.889Z,7.57
2022-12-25T11:51:25.873Z,7.58
2022-12-25T11:52:25.874Z,7.60
2022-12-25T11:53:25.844Z,7.63
2022-12-25T11:54:25.830Z,7.69
2022-12-25T11:55:25.814Z,7.73
2022-12-25T11:56:25.809Z,7.75
2022-12-25T11:57:25.803Z,7.76
2022-12-25T11:58:25.776Z,7.79
2022-12-25T11:59:25.775Z,7.82
2022-12-25T12:00:25.765Z,7.82
2022-12-25T12:01:25.801Z,7.83
2022-12-25T12:02:25.873Z,7.85
2022-12-25T12:03:25.836Z,7.88
2022-12-25T12:04:29.985Z,7.91
2022-12-25T12:05:26.720Z,7.91
2022-12-25T12:06:25.708Z,7.91
2022-12-25T12:07:25.733Z,7.94
2022-12-25T12:08:25.658Z,7.94
2022-12-25T12:09:25.686Z,7.97
2022-12-25T12:10:25.636Z,8.00
2022-12-25T12:11:25.599Z,8.01
2022-12-25T12:12:25.624Z,8.01
2022-12-25T12:13:25.577Z,8.03
2022-12-25T12:14:25.588Z,8.03
2022-12-25T12:15:25.613Z,8.05
2022-12-25T12:16:25.586Z,8.05
2022-12-25T12:17:25.561Z,8.05
2022-12-25T12:18:25.563Z,8.06
2022-12-25T12:19:25.510Z,8.06
2022-12-25T12:20:25.486Z,8.08
2022-12-25T12:21:25.475Z,8.08
2022-12-25T12:22:25.501Z,8.09
2022-12-25T12:23:25.441Z,8.10
2022-12-25T12:24:25.434Z,8.10
2022-12-25T12:25:25.420Z,8.12
2022-12-25T12:26:25.408Z,8.10
2022-12-25T12:27:25.435Z,8.13
2022-12-25T12:28:25.399Z,8.15
2022-12-25T12:29:25.403Z,8.13
2022-12-25T12:30:25.364Z,8.15
2022-12-25T12:31:25.380Z,8.16
2022-12-25T12:32:25.348Z,8.18
2022-12-25T12:33:25.297Z,8.18
2022-12-25T12:34:25.325Z,8.19
2022-12-25T12:35:25.288Z,8.20
2022-12-25T12:36:35.219Z,8.23
2022-12-25T12:37:26.270Z,8.24
2022-12-25T12:38:25.250Z,8.26
2022-12-25T12:39:25.228Z,8.26
2022-12-25T12:40:25.227Z,8.24
2022-12-25T12:41:25.210Z,8.26
2022-12-25T12:42:25.205Z,8.23
2022-12-25T12:43:25.183Z,8.24
2022-12-25T12:44:25.185Z,8.23
2022-12-25T12:45:25.210Z,8.24
2022-12-25T12:46:30.576Z,8.23
2022-12-25T12:47:26.135Z,8.20
2022-12-25T12:48:25.113Z,8.23
2022-12-25T12:49:25.104Z,8.24
2022-12-25T12:50:25.108Z,8.24
2022-12-25T12:51:25.073Z,8.20
2022-12-25T12:52:25.129Z,8.23
2022-12-25T12:53:25.058Z,8.23
2022-12-25T12:54:25.051Z,8.23
2022-12-25T12:55:25.033Z,8.20
2022-12-25T12:56:25.025Z,8.20
2022-12-25T12:57:25.000Z,8.23
2022-12-25T12:58:25.013Z,8.24
2022-12-25T12:59:24.972Z,8.20
2022-12-25T13:00:24.974Z,8.23
2022-12-25T13:01:25.062Z,8.23
2022-12-25T13:02:25.003Z,8.24
2022-12-25T13:03:24.955Z,8.24
2022-12-25T13:04:24.917Z,8.23
2022-12-25T13:05:30.577Z,8.24
2022-12-25T13:06:25.884Z,8.24
2022-12-25T13:07:24.872Z,8.24
2022-12-25T13:08:24.893Z,8.23
2022-12-25T13:09:24.848Z,8.24
2022-12-25T13:10:24.831Z,8.24
2022-12-25T13:11:24.830Z,8.24
2022-12-25T13:12:24.817Z,8.26
2022-12-25T13:13:24.835Z,8.26
2022-12-25T13:14:24.780Z,8.27
2022-12-25T13:15:24.778Z,8.28
2022-12-25T13:16:24.772Z,8.28
2022-12-25T13:17:24.787Z,8.30
2022-12-25T13:18:24.783Z,8.31